Time;durP1;ratioP1;P1;durP2;ratioP2;P2;SDS_P1;SDS_P2;PMS_P1;PMS_P2;Temp;Humidity;BMP_temperature;BMP_pressure;BME280_temperature;BME280_humidity;BME280_pressure;Samples;Min_cycle;Max_cycle;Signal;HPM_P1;HPM_P2
2022/05/19 00:01:47;;;;;;;3.33;2.80;;;21.70;55.30;;;;;;5126738;28;20424;-74
2022/05/19 00:04:14;;;;;;;3.47;2.97;;;21.60;55.40;;;;;;5128455;28;20410;-75
2022/05/19 00:06:40;;;;;;;3.20;2.90;;;21.60;55.30;;;;;;5122358;28;20468;-73
2022/05/19 00:09:07;;;;;;;3.53;3.22;;;21.60;55.60;;;;;;5113459;28;20459;-73
2022/05/19 00:11:34;;;;;;;3.40;3.10;;;21.60;55.40;;;;;;5112725;28;20800;-73
2022/05/19 00:14:02;;;;;;;4.07;3.28;;;21.60;55.80;;;;;;5103706;28;21034;-72
2022/05/19 00:16:29;;;;;;;3.63;3.00;;;21.50;55.60;;;;;;5111062;28;20431;-73
2022/05/19 00:18:57;;;;;;;3.40;3.10;;;21.50;55.80;;;;;;5104697;28;20430;-73
2022/05/19 00:21:23;;;;;;;3.00;2.80;;;21.50;56.00;;;;;;5106408;28;20497;-73
2022/05/19 00:23:50;;;;;;;3.53;2.90;;;21.40;56.30;;;;;;5107367;28;20428;-73
2022/05/19 00:26:17;;;;;;;4.93;3.15;;;21.40;56.10;;;;;;5109927;27;20424;-72
2022/05/19 00:28:44;;;;;;;3.80;3.40;;;21.40;56.50;;;;;;5108929;28;20879;-73
2022/05/19 00:31:10;;;;;;;3.42;2.90;;;21.30;56.50;;;;;;5111423;27;20459;-73
2022/05/19 00:33:37;;;;;;;3.55;3.25;;;21.30;56.40;;;;;;5097880;28;20479;-72
2022/05/19 00:36:09;;;;;;;3.40;3.10;;;21.30;56.40;;;;;;5109433;28;20428;-72
2022/05/19 00:38:36;;;;;;;3.30;3.00;;;21.30;56.70;;;;;;5102103;28;21034;-72
2022/05/19 00:41:03;;;;;;;3.42;3.00;;;21.20;57.00;;;;;;5110217;28;20854;-73
2022/05/19 00:43:33;;;;;;;3.75;3.45;;;21.20;57.20;;;;;;5099826;28;20912;-74
2022/05/19 00:46:06;;;;;;;4.07;3.20;;;21.10;57.30;;;;;;5109669;28;20466;-74
2022/05/19 00:48:41;;;;;;;3.78;3.35;;;21.10;57.70;;;;;;5102532;28;20815;-73
2022/05/19 00:51:10;;;;;;;3.55;3.20;;;21.00;58.60;;;;;;5109125;28;20492;-71
2022/05/19 00:53:43;;;;;;;4.45;3.03;;;21.00;58.70;;;;;;5109044;28;20424;-74
2022/05/19 00:56:15;;;;;;;3.40;3.03;;;21.00;58.20;;;;;;5109641;28;20412;-71
2022/05/19 00:58:47;;;;;;;3.35;3.05;;;21.00;58.00;;;;;;5100668;28;20952;-72
2022/05/19 01:01:14;;;;;;;3.20;2.90;;;20.90;57.90;;;;;;5110151;28;20424;-73
2022/05/19 01:03:46;;;;;;;3.13;2.90;;;20.90;58.50;;;;;;5102998;28;20416;-72
2022/05/19 01:06:17;;;;;;;3.33;3.00;;;20.90;58.50;;;;;;5107692;28;20485;-72
2022/05/19 01:08:48;;;;;;;3.50;3.20;;;20.90;58.50;;;;;;5108203;28;20519;-73
2022/05/19 01:11:18;;;;;;;3.50;3.20;;;20.80;58.60;;;;;;5109517;28;20412;-74
2022/05/19 01:13:45;;;;;;;3.50;3.10;;;20.80;58.50;;;;;;5102342;28;20788;-72
2022/05/19 01:16:12;;;;;;;3.30;3.00;;;20.80;59.60;;;;;;5107198;28;20435;-72
2022/05/19 01:18:39;;;;;;;3.33;3.03;;;20.70;59.00;;;;;;5106861;27;20894;-73
2022/05/19 01:21:08;;;;;;;3.90;3.30;;;20.70;58.90;;;;;;5109465;28;20848;-73
2022/05/19 01:23:45;;;;;;;3.92;3.10;;;20.70;58.20;;;;;;5105481;28;21023;-74
2022/05/19 01:26:22;;;;;;;3.60;3.30;;;20.70;58.40;;;;;;5109118;28;20415;-73
2022/05/19 01:28:50;;;;;;;4.00;3.60;;;20.70;58.30;;;;;;5099933;28;20432;-72
2022/05/19 01:31:31;;;;;;;4.90;3.20;;;20.70;58.30;;;;;;5110164;28;20428;-71
2022/05/19 01:33:59;;;;;;;3.38;3.13;;;20.70;58.70;;;;;;5106350;28;20420;-72
2022/05/19 01:36:26;;;;;;;3.50;3.20;;;20.70;58.30;;;;;;5101492;28;20417;-72
2022/05/19 01:39:00;;;;;;;3.50;3.20;;;20.60;58.50;;;;;;5106871;28;20447;-72
2022/05/19 01:41:35;;;;;;;4.00;3.47;;;20.60;60.10;;;;;;5123774;28;20484;-72
2022/05/19 01:44:18;;;;;;;3.70;3.40;;;20.60;58.90;;;;;;5120645;28;20905;-73
2022/05/19 01:46:49;;;;;;;3.60;3.30;;;20.50;58.90;;;;;;5105459;28;20427;-71
2022/05/19 01:49:21;;;;;;;3.20;3.00;;;20.40;59.00;;;;;;5107666;28;20435;-73
2022/05/19 01:51:54;;;;;;;3.67;3.10;;;20.40;58.90;;;;;;5107282;28;20435;-73
2022/05/19 01:54:30;;;;;;;4.07;3.78;;;20.40;59.20;;;;;;5108673;28;20477;-73
2022/05/19 01:57:01;;;;;;;4.10;3.80;;;20.40;59.30;;;;;;5104871;28;20461;-73
2022/05/19 01:59:35;;;;;;;4.32;4.03;;;20.50;59.00;;;;;;5106405;28;20993;-73
2022/05/19 02:02:09;;;;;;;4.00;3.70;;;20.50;58.80;;;;;;5106506;28;20451;-74
2022/05/19 02:04:40;;;;;;;3.80;3.55;;;20.40;58.70;;;;;;5116246;28;20459;-72
2022/05/19 02:07:10;;;;;;;3.97;3.55;;;20.40;59.00;;;;;;5110095;28;20428;-73
2022/05/19 02:09:41;;;;;;;3.57;3.27;;;20.40;58.70;;;;;;5112164;28;20454;-72
2022/05/19 02:12:09;;;;;;;3.50;3.20;;;20.40;59.00;;;;;;5108895;28;20489;-73
2022/05/19 02:14:40;;;;;;;3.70;3.10;;;20.40;58.60;;;;;;5107515;28;20793;-73
2022/05/19 02:17:10;;;;;;;3.58;3.28;;;20.30;59.30;;;;;;5105614;28;20432;-73
2022/05/19 02:19:40;;;;;;;4.63;3.20;;;20.30;59.10;;;;;;5105819;28;20452;-74
2022/05/19 02:22:09;;;;;;;3.92;2.78;;;20.30;59.50;;;;;;5107078;28;20493;-73
2022/05/19 02:24:40;;;;;;;3.30;3.10;;;20.30;59.40;;;;;;5105946;28;20507;-72
2022/05/19 02:27:39;;;;;;;3.40;3.10;;;20.30;59.00;;;;;;5103804;28;20431;-72
2022/05/19 02:30:11;;;;;;;4.28;3.30;;;20.30;59.10;;;;;;5100485;28;20446;-72
2022/05/19 02:32:38;;;;;;;3.13;2.93;;;20.30;59.30;;;;;;5106241;28;20431;-72
2022/05/19 02:35:07;;;;;;;3.35;3.00;;;20.30;58.90;;;;;;5106259;28;20850;-74
2022/05/19 02:37:35;;;;;;;3.78;3.47;;;20.30;59.20;;;;;;5106183;28;20432;-74
2022/05/19 02:40:03;;;;;;;3.35;3.05;;;20.30;59.10;;;;;;5104130;28;20902;-72
2022/05/19 02:42:30;;;;;;;3.30;3.10;;;20.30;59.50;;;;;;5107573;28;20772;-73
2022/05/19 02:44:57;;;;;;;3.70;2.90;;;20.20;59.30;;;;;;5103638;28;20438;-73
2022/05/19 02:47:25;;;;;;;3.10;2.80;;;20.20;59.00;;;;;;5104878;28;20435;-71
2022/05/19 02:49:52;;;;;;;3.30;3.10;;;20.30;59.50;;;;;;5106721;28;20443;-72
2022/05/19 02:52:18;;;;;;;3.35;3.05;;;20.30;59.20;;;;;;5108090;28;20428;-74
2022/05/19 02:54:45;;;;;;;3.10;2.90;;;20.20;59.40;;;;;;5105169;28;20423;-72
2022/05/19 02:57:12;;;;;;;3.50;3.20;;;20.20;59.40;;;;;;5105170;28;20428;-74
2022/05/19 02:59:38;;;;;;;3.90;3.50;;;20.20;59.50;;;;;;5104427;28;20497;-72
2022/05/19 03:02:05;;;;;;;3.80;3.30;;;20.20;60.00;;;;;;5104459;28;20425;-73
2022/05/19 03:04:33;;;;;;;3.92;3.30;;;20.10;60.20;;;;;;5103393;28;20902;-73
2022/05/19 03:07:00;;;;;;;3.30;3.10;;;20.00;60.20;;;;;;5107596;28;20420;-73
2022/05/19 03:09:26;;;;;;;3.65;3.20;;;20.00;60.10;;;;;;5104679;28;20428;-73
2022/05/19 03:11:53;;;;;;;3.92;3.20;;;20.00;59.80;;;;;;5107551;28;20426;-73
2022/05/19 03:14:20;;;;;;;3.20;2.90;;;20.00;60.30;;;;;;5104594;28;20435;-71
2022/05/19 03:16:46;;;;;;;3.75;2.90;;;20.00;60.30;;;;;;5111198;28;20424;-72
2022/05/19 03:19:13;;;;;;;3.55;3.20;;;20.00;61.50;;;;;;5108639;28;20481;-71
2022/05/19 03:21:42;;;;;;;3.67;3.38;;;19.90;60.50;;;;;;5111953;28;20974;-72
2022/05/19 03:24:09;;;;;;;3.70;3.40;;;19.90;60.60;;;;;;5107273;28;20424;-72
2022/05/19 03:26:36;;;;;;;4.43;3.47;;;19.90;60.80;;;;;;5105891;28;20428;-71
2022/05/19 03:29:03;;;;;;;4.35;3.28;;;19.90;60.60;;;;;;5108730;28;20431;-72
2022/05/19 03:31:30;;;;;;;3.67;3.38;;;19.90;60.30;;;;;;5107479;28;20532;-73
2022/05/19 03:33:57;;;;;;;3.47;3.17;;;19.90;60.20;;;;;;5109357;28;20786;-72
2022/05/19 03:36:24;;;;;;;3.20;3.00;;;19.90;60.30;;;;;;5111494;28;20461;-72
2022/05/19 03:38:52;;;;;;;3.78;3.47;;;19.80;60.50;;;;;;5110698;28;20990;-73
2022/05/19 03:41:19;;;;;;;3.83;3.53;;;19.80;60.40;;;;;;5134150;28;20427;-73
2022/05/19 03:43:45;;;;;;;3.58;3.25;;;19.80;60.20;;;;;;5116942;28;20442;-72
2022/05/19 03:46:12;;;;;;;3.63;3.20;;;19.80;60.60;;;;;;5109092;28;20597;-73
2022/05/19 03:48:39;;;;;;;4.40;3.53;;;19.70;60.70;;;;;;5116976;28;20412;-74
2022/05/19 03:51:10;;;;;;;3.00;2.80;;;19.70;60.50;;;;;;5132862;28;20416;-75
2022/05/19 03:53:38;;;;;;;3.53;3.22;;;19.70;60.40;;;;;;5129229;28;20428;-74
2022/05/19 03:56:06;;;;;;;3.95;3.60;;;19.70;60.60;;;;;;5107337;28;21084;-72
2022/05/19 03:58:33;;;;;;;3.47;3.17;;;19.70;60.70;;;;;;5105346;28;20437;-74
2022/05/19 04:01:00;;;;;;;3.83;3.22;;;19.70;60.70;;;;;;5118138;28;21143;-73
2022/05/19 04:03:27;;;;;;;3.20;3.00;;;19.70;60.20;;;;;;5112669;28;20484;-73
2022/05/19 04:05:53;;;;;;;4.28;3.88;;;19.70;60.20;;;;;;5114428;28;20436;-73
2022/05/19 04:08:20;;;;;;;3.60;3.30;;;19.80;60.20;;;;;;5109039;28;20424;-72
2022/05/19 04:10:48;;;;;;;4.33;3.57;;;19.70;60.50;;;;;;5100386;28;20430;-72
2022/05/19 04:13:16;;;;;;;3.70;3.25;;;19.70;60.60;;;;;;5105736;28;20850;-73
2022/05/19 04:15:43;;;;;;;4.80;3.37;;;19.80;60.40;;;;;;5109373;28;20420;-73
2022/05/19 04:18:10;;;;;;;4.30;3.90;;;19.70;60.10;;;;;;5109121;28;20476;-73
2022/05/19 04:20:36;;;;;;;3.80;3.50;;;19.80;60.10;;;;;;5110451;28;20420;-69
2022/05/19 04:23:03;;;;;;;6.43;3.92;;;19.80;60.00;;;;;;5104699;28;20562;-68
2022/05/19 04:25:31;;;;;;;4.78;4.10;;;19.80;60.00;;;;;;5104274;28;20421;-69
2022/05/19 04:27:57;;;;;;;6.20;4.63;;;19.80;60.10;;;;;;5120390;28;20422;-68
2022/05/19 04:30:27;;;;;;;6.85;4.10;;;19.80;60.10;;;;;;5121753;22;20518;-66
2022/05/19 04:32:54;;;;;;;6.03;4.50;;;19.80;60.30;;;;;;5074587;28;20430;-66
2022/05/19 04:35:21;;;;;;;5.28;4.63;;;19.80;60.10;;;;;;5079501;28;20958;-66
2022/05/19 04:37:48;;;;;;;5.97;4.28;;;19.80;60.20;;;;;;5073591;28;20438;-68
2022/05/19 04:40:16;;;;;;;9.07;4.60;;;19.80;60.30;;;;;;5067510;28;20527;-66
2022/05/19 04:42:44;;;;;;;4.95;4.45;;;19.80;60.10;;;;;;5060247;28;20432;-66
2022/05/19 04:45:12;;;;;;;4.60;4.10;;;19.80;60.40;;;;;;5062099;28;20952;-66
2022/05/19 04:47:40;;;;;;;6.30;3.50;;;19.80;60.30;;;;;;5060500;28;20485;-74
2022/05/19 04:50:08;;;;;;;3.80;3.40;;;19.80;60.00;;;;;;5060927;28;20431;-75
2022/05/19 04:52:36;;;;;;;4.00;3.70;;;19.80;60.10;;;;;;5058661;28;20440;-74
2022/05/19 04:55:03;;;;;;;3.97;3.53;;;19.80;60.30;;;;;;5061470;28;20466;-73
2022/05/19 04:57:30;;;;;;;4.30;3.90;;;19.80;60.00;;;;;;5063943;28;20499;-75
2022/05/19 04:59:56;;;;;;;4.63;3.80;;;19.80;60.50;;;;;;5057397;28;20439;-72
2022/05/19 05:02:23;;;;;;;6.67;4.10;;;19.90;60.70;;;;;;5056684;28;20444;-78
2022/05/19 05:04:51;;;;;;;5.17;4.43;;;19.80;60.00;;;;;;5061348;28;20483;-78
2022/05/19 05:07:18;;;;;;;6.10;4.20;;;19.90;60.30;;;;;;5057458;28;20544;-76
2022/05/19 05:09:44;;;;;;;5.30;3.90;;;19.90;60.30;;;;;;5055417;28;20745;-81
2022/05/19 05:12:11;;;;;;;6.95;4.47;;;19.90;60.40;;;;;;5060242;28;20431;-78
2022/05/19 05:14:38;;;;;;;5.78;3.58;;;19.90;60.00;;;;;;5062735;28;20419;-77
2022/05/19 05:17:05;;;;;;;5.22;4.10;;;20.00;59.60;;;;;;5058625;28;20492;-76
2022/05/19 05:19:32;;;;;;;5.65;3.83;;;20.00;59.60;;;;;;5062093;28;20476;-73
2022/05/19 05:22:01;;;;;;;5.90;4.10;;;20.10;59.50;;;;;;5063143;28;20531;-76
2022/05/19 05:24:28;;;;;;;5.72;3.92;;;20.20;59.50;;;;;;5054676;28;20501;-78
2022/05/19 05:26:55;;;;;;;4.57;3.53;;;20.20;59.00;;;;;;5057001;28;20805;-78
2022/05/19 05:29:22;;;;;;;5.60;3.55;;;20.30;58.60;;;;;;5058106;28;20465;-78
2022/05/19 05:31:48;;;;;;;5.40;3.30;;;20.40;57.60;;;;;;5043028;28;21019;-76
2022/05/19 05:34:15;;;;;;;4.90;3.33;;;20.50;58.00;;;;;;5041140;28;20467;-76
2022/05/19 05:36:42;;;;;;;3.50;3.30;;;20.50;57.60;;;;;;5041623;28;20464;-72
2022/05/19 05:39:10;;;;;;;4.05;3.20;;;20.60;57.60;;;;;;5055728;28;21041;-75
2022/05/19 05:41:37;;;;;;;3.80;3.10;;;20.70;56.90;;;;;;5048787;28;20474;-78
2022/05/19 05:44:04;;;;;;;3.30;3.00;;;20.70;57.10;;;;;;5043159;28;20433;-73
2022/05/19 05:46:30;;;;;;;3.42;3.13;;;20.80;58.50;;;;;;5044530;28;20506;-74
2022/05/19 05:48:57;;;;;;;3.17;2.97;;;20.80;56.90;;;;;;5038222;28;20579;-75
2022/05/19 05:51:24;;;;;;;3.85;2.70;;;20.80;56.90;;;;;;5051276;28;20423;-76
2022/05/19 05:53:50;;;;;;;3.50;3.20;;;20.90;56.40;;;;;;5058098;28;20443;-74
2022/05/19 05:56:21;;;;;;;3.47;3.17;;;20.80;56.70;;;;;;5055296;28;20437;-75
2022/05/19 05:58:47;;;;;;;3.88;3.45;;;20.70;57.10;;;;;;5041350;28;20467;-73
2022/05/19 06:01:17;;;;;;;4.07;3.35;;;20.70;57.10;;;;;;5041660;28;20814;-74
2022/05/19 06:03:46;;;;;;;4.13;3.38;;;20.70;57.50;;;;;;5038808;28;20437;-71
2022/05/19 06:06:13;;;;;;;3.60;3.30;;;20.70;57.70;;;;;;5048557;28;20427;-73
2022/05/19 06:08:40;;;;;;;3.83;3.20;;;20.70;57.50;;;;;;5042401;28;20473;-71
2022/05/19 06:11:07;;;;;;;4.70;3.55;;;20.70;57.60;;;;;;5046884;28;20439;-74
2022/05/19 06:13:36;;;;;;;3.60;3.10;;;20.60;57.60;;;;;;5043882;28;20463;-73
2022/05/19 06:16:03;;;;;;;4.72;3.42;;;20.70;57.40;;;;;;5053034;28;20941;-75
2022/05/19 06:18:30;;;;;;;4.40;2.90;;;20.70;57.80;;;;;;5043590;28;20437;-74
2022/05/19 06:20:56;;;;;;;3.90;3.47;;;20.70;57.30;;;;;;5041110;28;20436;-75
2022/05/19 06:23:24;;;;;;;3.50;3.20;;;20.80;57.70;;;;;;5049399;28;20429;-74
2022/05/19 06:25:50;;;;;;;3.47;3.10;;;20.90;57.60;;;;;;5039719;28;20455;-73
2022/05/19 06:28:17;;;;;;;3.75;3.10;;;21.10;56.80;;;;;;5036240;28;20518;-74
2022/05/19 06:30:45;;;;;;;3.40;3.10;;;21.20;56.70;;;;;;5044241;28;20445;-77
2022/05/19 06:33:17;;;;;;;3.83;3.10;;;21.40;55.40;;;;;;5042833;28;20456;-78
2022/05/19 06:35:44;;;;;;;3.60;3.30;;;21.50;54.50;;;;;;5037956;28;20985;-75
2022/05/19 06:38:11;;;;;;;4.40;2.90;;;21.60;54.70;;;;;;5041091;28;20436;-78
2022/05/19 06:40:38;;;;;;;3.20;2.90;;;21.70;54.30;;;;;;5040877;28;20476;-77
2022/05/19 06:43:08;;;;;;;4.40;3.40;;;21.80;54.00;;;;;;5038744;28;21073;-75
2022/05/19 06:45:35;;;;;;;3.70;3.20;;;21.90;53.60;;;;;;5045118;28;20432;-75
2022/05/19 06:48:03;;;;;;;3.53;3.20;;;22.00;53.20;;;;;;5044504;28;20454;-79
2022/05/19 06:50:30;;;;;;;4.03;3.03;;;22.10;53.10;;;;;;5044349;28;20440;-76
2022/05/19 06:53:02;;;;;;;3.55;3.25;;;22.20;53.80;;;;;;5044748;28;20482;-78
2022/05/19 06:55:30;;;;;;;4.00;3.10;;;22.30;54.40;;;;;;5042467;28;21111;-79
2022/05/19 06:57:57;;;;;;;3.95;3.30;;;22.60;52.20;;;;;;5045582;28;20512;-75
2022/05/19 07:00:26;;;;;;;4.87;3.07;;;22.70;51.70;;;;;;5045867;28;20437;-82
2022/05/19 07:02:55;;;;;;;3.30;3.00;;;22.60;51.90;;;;;;5046296;28;20497;-75
2022/05/19 07:05:25;;;;;;;3.95;3.55;;;22.60;52.30;;;;;;5044643;28;21061;-78
2022/05/19 07:07:52;;;;;;;4.40;3.00;;;22.60;52.40;;;;;;5041632;28;20432;-78
2022/05/19 07:10:21;;;;;;;3.30;3.00;;;22.60;52.70;;;;;;5043488;28;20454;-77
2022/05/19 07:12:49;;;;;;;3.40;2.70;;;22.70;52.60;;;;;;5041448;28;20525;-77
2022/05/19 07:15:19;;;;;;;4.15;3.00;;;22.80;52.40;;;;;;5046362;28;20473;-79
2022/05/19 07:17:46;;;;;;;3.58;2.90;;;23.00;51.70;;;;;;5038252;28;21262;-76
2022/05/19 07:22:58;;;;;;;4.47;2.85;;;23.10;51.30;;;;;;5036326;28;20443;-79
2022/05/19 07:25:25;;;;;;;3.08;2.78;;;23.30;50.60;;;;;;5044012;28;20924;-75
2022/05/19 07:27:52;;;;;;;3.40;2.72;;;23.30;51.00;;;;;;5042863;28;20532;-78
2022/05/19 07:30:19;;;;;;;2.90;2.60;;;23.40;50.60;;;;;;5048894;28;20538;-75
2022/05/19 07:32:46;;;;;;;3.07;2.77;;;23.50;50.30;;;;;;5066803;28;20427;-73
2022/05/19 07:35:15;;;;;;;3.60;2.70;;;23.70;50.10;;;;;;5060674;28;20442;-72
2022/05/19 07:37:42;;;;;;;2.85;2.65;;;23.70;49.80;;;;;;5063803;28;20420;-72
2022/05/19 07:40:11;;;;;;;3.63;2.65;;;23.90;49.70;;;;;;5060034;28;20454;-73
2022/05/19 07:42:37;;;;;;;4.10;2.72;;;24.20;48.80;;;;;;5061160;28;20427;-73
2022/05/19 07:45:05;;;;;;;3.45;2.60;;;24.60;47.50;;;;;;5061503;28;20592;-72
2022/05/19 07:47:33;;;;;;;3.00;2.70;;;24.60;47.80;;;;;;5065452;28;20433;-73
2022/05/19 07:49:59;;;;;;;2.90;2.60;;;24.60;47.60;;;;;;5064688;28;20806;-72
2022/05/19 07:52:26;;;;;;;3.00;2.80;;;24.50;47.90;;;;;;5062232;28;20504;-73
2022/05/19 07:54:54;;;;;;;4.37;2.93;;;24.40;48.40;;;;;;5056320;28;20462;-72
2022/05/19 07:57:22;;;;;;;2.80;2.60;;;24.40;49.00;;;;;;5063652;28;20419;-72
2022/05/19 07:59:49;;;;;;;2.70;2.50;;;24.40;48.50;;;;;;5060460;28;20437;-72
2022/05/19 08:02:16;;;;;;;3.85;2.67;;;24.40;48.50;;;;;;5063600;28;20919;-71
2022/05/19 08:04:42;;;;;;;4.20;2.63;;;24.50;48.30;;;;;;5056147;28;20428;-73
2022/05/19 08:07:09;;;;;;;3.40;2.63;;;24.60;48.70;;;;;;5067412;28;20416;-73
2022/05/19 08:17:51;;;;;;;3.10;2.80;;;24.70;47.60;;;;;;5062734;28;20512;-78
2022/05/19 08:20:18;;;;;;;2.87;2.67;;;24.90;47.90;;;;;;5064593;28;20427;-78
2022/05/19 08:22:45;;;;;;;2.97;2.33;;;25.20;46.30;;;;;;5059979;28;20738;-78
2022/05/19 08:25:12;;;;;;;3.70;2.60;;;25.50;45.80;;;;;;5064795;28;20447;-77
2022/05/19 08:27:44;;;;;;;2.83;2.55;;;25.80;44.10;;;;;;5066199;28;20513;-78
2022/05/19 08:30:11;;;;;;;4.07;2.92;;;25.80;43.70;;;;;;5054956;28;20962;-78
2022/05/19 08:32:38;;;;;;;3.08;2.40;;;25.90;43.60;;;;;;5047412;28;20483;-78
2022/05/19 08:35:06;;;;;;;3.28;2.80;;;26.00;43.90;;;;;;5045105;28;20437;-79
2022/05/19 08:37:33;;;;;;;3.50;2.42;;;26.10;43.70;;;;;;5046994;28;20437;-78
2022/05/19 08:40:00;;;;;;;2.80;2.60;;;26.30;43.00;;;;;;5047709;28;20930;-79
2022/05/19 08:42:30;;;;;;;3.13;2.67;;;26.60;43.10;;;;;;5045780;28;20486;-79
2022/05/19 08:45:01;;;;;;;3.60;2.40;;;27.00;42.00;;;;;;5039981;28;20878;-77
2022/05/19 08:47:33;;;;;;;2.75;2.30;;;27.10;41.30;;;;;;5050815;28;20521;-78
2022/05/19 08:50:03;;;;;;;2.90;2.60;;;27.20;40.00;;;;;;5045688;28;20431;-75
2022/05/19 08:52:38;;;;;;;3.17;2.63;;;27.10;40.30;;;;;;5039641;28;20464;-78
2022/05/19 08:55:05;;;;;;;3.20;2.60;;;27.00;40.60;;;;;;5042290;28;20907;-76
2022/05/19 08:57:37;;;;;;;2.90;2.60;;;26.90;41.20;;;;;;5047922;28;20416;-76
2022/05/19 09:00:10;;;;;;;2.75;2.40;;;26.70;41.30;;;;;;5048936;28;20586;-81
2022/05/19 09:02:43;;;;;;;3.45;2.70;;;26.70;41.50;;;;;;5049584;28;20934;-80
2022/05/19 09:05:32;;;;;;;3.25;2.40;;;27.10;40.90;;;;;;5052334;28;20494;-78
2022/05/19 09:08:12;;;;;;;5.05;2.80;;;27.30;40.30;;;;;;5041613;28;20461;-78
2022/05/19 09:11:01;;;;;;;3.60;2.75;;;27.60;40.50;;;;;;5053804;28;20507;-79
2022/05/19 09:13:34;;;;;;;3.00;2.43;;;28.00;39.40;;;;;;5056837;28;20721;-79
2022/05/19 09:16:06;;;;;;;3.50;2.83;;;28.30;38.40;;;;;;5054221;28;20562;-79
2022/05/19 09:18:37;;;;;;;3.80;2.22;;;28.40;37.90;;;;;;5049123;28;20463;-80
2022/05/19 09:21:05;;;;;;;3.72;2.60;;;28.50;37.50;;;;;;5046492;28;20495;-78
2022/05/19 09:23:33;;;;;;;3.00;2.80;;;28.40;38.80;;;;;;5048561;28;20543;-78
2022/05/19 09:26:07;;;;;;;3.40;2.80;;;28.50;38.20;;;;;;5043865;28;20444;-79
2022/05/19 09:28:35;;;;;;;2.85;2.47;;;28.80;37.90;;;;;;5050679;28;20806;-78
2022/05/19 09:31:03;;;;;;;2.58;2.38;;;28.90;37.30;;;;;;5058816;28;20574;-76
2022/05/19 09:33:35;;;;;;;3.40;2.85;;;28.80;36.90;;;;;;5057483;28;20788;-77
2022/05/19 09:36:10;;;;;;;3.40;2.70;;;28.90;37.30;;;;;;5066601;28;20510;-77
2022/05/19 09:38:39;;;;;;;2.97;2.20;;;29.00;37.60;;;;;;5063955;28;20423;-75
2022/05/19 09:41:08;;;;;;;2.80;2.60;;;29.10;37.80;;;;;;5072759;28;20816;-78
2022/05/19 09:43:37;;;;;;;3.33;2.53;;;29.20;36.70;;;;;;5069100;28;20495;-77
2022/05/19 09:46:11;;;;;;;3.00;2.70;;;29.30;36.40;;;;;;5075602;28;20486;-77
2022/05/19 09:48:43;;;;;;;2.63;2.42;;;29.40;36.00;;;;;;5071820;28;20495;-75
2022/05/19 09:51:13;;;;;;;2.90;2.60;;;29.40;35.10;;;;;;5073249;28;20779;-71
2022/05/19 09:53:42;;;;;;;2.80;2.50;;;29.40;35.80;;;;;;5059239;28;20437;-77
2022/05/19 09:56:12;;;;;;;2.40;2.20;;;29.40;36.40;;;;;;5053615;28;20444;-77
2022/05/19 09:58:45;;;;;;;4.55;2.60;;;29.70;35.20;;;;;;5064382;28;20494;-77
2022/05/19 10:01:21;;;;;;;4.50;2.30;;;29.90;34.80;;;;;;5060619;28;20431;-77
2022/05/19 10:03:54;;;;;;;2.40;2.20;;;29.90;35.00;;;;;;5056939;28;21206;-77
2022/05/19 10:06:23;;;;;;;3.20;2.50;;;30.00;35.00;;;;;;5058117;28;20434;-77
2022/05/19 10:08:59;;;;;;;2.30;2.03;;;30.10;34.40;;;;;;5055475;28;20419;-78
2022/05/19 10:11:30;;;;;;;2.50;2.30;;;29.90;34.60;;;;;;5057129;28;20487;-78
2022/05/19 10:14:04;;;;;;;4.10;2.58;;;29.70;35.20;;;;;;5053918;28;20435;-77
2022/05/19 10:16:52;;;;;;;2.70;2.50;;;29.50;35.80;;;;;;5055268;28;20932;-77
2022/05/19 10:19:33;;;;;;;2.60;2.40;;;29.60;35.60;;;;;;5060700;28;20442;-77
2022/05/19 10:22:14;;;;;;;2.58;2.38;;;29.80;35.70;;;;;;5059814;28;20476;-75
2022/05/19 10:24:58;;;;;;;2.63;2.42;;;29.90;35.40;;;;;;5061350;28;20510;-73
2022/05/19 10:33:16;;;;;;;2.72;2.50;;;29.60;35.30;;;;;;5036662;28;20809;-77
2022/05/19 10:36:09;;;;;;;2.60;2.20;;;29.50;36.00;;;;;;5041443;28;20437;-77
2022/05/19 10:38:45;;;;;;;2.60;2.40;;;29.70;35.80;;;;;;5042527;28;20507;-77
2022/05/19 10:41:24;;;;;;;2.85;2.30;;;29.70;35.70;;;;;;5032429;28;20570;-77
2022/05/19 10:44:09;;;;;;;4.10;2.15;;;29.70;35.80;;;;;;5039568;28;20502;-75
2022/05/19 10:46:47;;;;;;;3.90;2.58;;;29.60;36.10;;;;;;5040484;28;21068;-76
2022/05/19 10:49:32;;;;;;;4.00;2.63;;;29.40;36.70;;;;;;5045312;28;20512;-77
2022/05/19 10:52:12;;;;;;;4.13;2.40;;;29.10;36.60;;;;;;5040738;28;20445;-78
2022/05/19 10:54:57;;;;;;;2.80;2.60;;;29.10;37.50;;;;;;5039187;28;20482;-75
2022/05/19 10:57:42;;;;;;;3.17;2.40;;;29.40;36.10;;;;;;5038243;28;20476;-70
2022/05/19 11:00:17;;;;;;;2.87;2.53;;;29.60;35.40;;;;;;5070520;22;21625;-76
2022/05/19 11:03:06;;;;;;;3.40;2.60;;;29.90;35.30;;;;;;5099226;28;21133;-75
2022/05/19 11:05:48;;;;;;;2.78;2.58;;;30.10;35.10;;;;;;5093732;28;20474;-75
2022/05/19 11:08:29;;;;;;;4.03;2.40;;;29.90;35.00;;;;;;5103123;28;20417;-75
2022/05/19 11:11:01;;;;;;;3.03;2.40;;;29.70;35.40;;;;;;5107215;28;20434;-75
2022/05/19 11:13:44;;;;;;;2.97;2.72;;;29.60;36.00;;;;;;5112521;28;20440;-74
2022/05/19 11:16:20;;;;;;;3.53;2.92;;;29.60;35.80;;;;;;5108686;28;20517;-75
2022/05/19 11:18:55;;;;;;;3.85;2.75;;;29.80;35.30;;;;;;5102329;28;20802;-75
2022/05/19 11:21:30;;;;;;;3.00;2.80;;;29.50;35.40;;;;;;5107234;28;20415;-74
2022/05/19 11:24:02;;;;;;;3.60;2.42;;;29.30;36.60;;;;;;5107534;28;20441;-75
2022/05/19 11:26:35;;;;;;;2.85;2.40;;;29.20;36.30;;;;;;5105353;28;20969;-75
2022/05/19 11:29:15;;;;;;;2.90;2.70;;;29.20;36.10;;;;;;5100658;28;20836;-76
2022/05/19 11:31:48;;;;;;;3.60;2.60;;;29.00;36.90;;;;;;5106130;28;20431;-76
2022/05/19 11:34:22;;;;;;;2.83;2.63;;;28.90;36.90;;;;;;5111637;27;20418;-75
2022/05/19 11:36:56;;;;;;;4.28;2.80;;;28.90;37.40;;;;;;5108604;27;20840;-74
2022/05/19 11:39:28;;;;;;;3.00;2.80;;;29.00;38.20;;;;;;5109445;27;20424;-77
2022/05/19 11:42:05;;;;;;;3.13;2.60;;;29.50;37.60;;;;;;5108699;27;20783;-74
2022/05/19 11:44:38;;;;;;;2.85;2.55;;;29.80;36.50;;;;;;5103802;27;20615;-74
2022/05/19 11:47:14;;;;;;;3.00;2.60;;;30.10;36.60;;;;;;5105231;28;20819;-73
2022/05/19 11:55:28;;;;;;;2.58;2.20;;;31.20;35.30;;;;;;5104488;27;20919;-75
2022/05/19 11:57:59;;;;;;;4.65;2.92;;;31.20;35.00;;;;;;5113491;27;20515;-76
2022/05/19 12:00:28;;;;;;;2.80;2.60;;;31.30;35.20;;;;;;5111202;27;20481;-74
2022/05/19 12:03:02;;;;;;;3.70;2.50;;;31.50;34.50;;;;;;5105212;27;20489;-75
2022/05/19 12:05:33;;;;;;;2.87;2.60;;;31.40;34.60;;;;;;5104694;27;20428;-74
2022/05/19 12:08:12;;;;;;;3.10;2.55;;;31.30;35.40;;;;;;5106370;27;20422;-75
2022/05/19 12:10:43;;;;;;;2.60;2.40;;;31.50;34.50;;;;;;5109938;27;20480;-74
2022/05/19 12:13:11;;;;;;;2.60;2.40;;;31.50;35.50;;;;;;5110018;27;20493;-73
2022/05/19 12:15:40;;;;;;;2.88;2.60;;;31.70;35.30;;;;;;5108112;27;20418;-74
2022/05/19 12:18:16;;;;;;;3.40;2.70;;;31.60;35.30;;;;;;5109692;28;20828;-75
2022/05/19 12:20:54;;;;;;;4.10;2.70;;;31.50;34.70;;;;;;5108739;27;20459;-73
2022/05/19 12:23:28;;;;;;;4.63;2.45;;;31.70;35.00;;;;;;5108747;27;20436;-74
2022/05/19 12:26:00;;;;;;;2.60;2.40;;;32.00;33.80;;;;;;5107896;28;20429;-73
2022/05/19 12:28:45;;;;;;;4.65;2.30;;;32.00;34.30;;;;;;5106584;27;20471;-74
2022/05/19 12:34:06;;;;;;;3.90;2.80;;;31.80;34.40;;;;;;5107470;27;20504;-75
2022/05/19 12:36:38;;;;;;;2.65;2.30;;;31.60;35.00;;;;;;5108708;27;20439;-74
2022/05/19 12:39:23;;;;;;;5.53;2.80;;;31.50;35.60;;;;;;5108098;27;20428;-75
2022/05/19 12:41:55;;;;;;;3.97;2.70;;;31.50;35.80;;;;;;5105034;28;21001;-74
2022/05/19 12:44:39;;;;;;;2.60;2.40;;;31.20;35.80;;;;;;5114716;27;20420;-74
2022/05/19 12:47:11;;;;;;;2.60;2.40;;;31.40;35.90;;;;;;5103951;27;20476;-74
2022/05/19 12:49:39;;;;;;;3.00;2.70;;;31.60;35.60;;;;;;5110340;27;20424;-75
2022/05/19 12:52:13;;;;;;;2.80;2.60;;;31.90;36.00;;;;;;5111034;28;20893;-75
2022/05/19 12:54:53;;;;;;;4.22;3.00;;;32.10;34.80;;;;;;5111149;27;20457;-75
2022/05/19 12:57:30;;;;;;;2.83;2.63;;;32.20;35.90;;;;;;5116233;27;20527;-74
2022/05/19 13:00:07;;;;;;;2.67;2.47;;;32.30;34.80;;;;;;5112668;27;20428;-74
2022/05/19 13:02:40;;;;;;;2.47;2.30;;;32.20;34.30;;;;;;5110917;27;20462;-74
2022/05/19 13:05:17;;;;;;;3.25;2.67;;;32.10;35.00;;;;;;5108245;28;20503;-68
2022/05/19 13:07:49;;;;;;;3.25;2.60;;;32.30;34.70;;;;;;5110083;27;20453;-67
2022/05/19 13:10:20;;;;;;;2.85;2.50;;;32.50;34.60;;;;;;5106744;27;20950;-67
2022/05/19 13:12:52;;;;;;;3.50;2.53;;;32.50;34.40;;;;;;5112606;27;20436;-68
2022/05/19 13:15:25;;;;;;;3.50;2.60;;;32.00;34.90;;;;;;5109173;27;20484;-68
2022/05/19 13:17:53;;;;;;;3.30;2.55;;;31.60;36.10;;;;;;5105450;27;20461;-68
2022/05/19 13:20:23;;;;;;;3.95;2.80;;;31.30;36.80;;;;;;5107404;27;20644;-68
2022/05/19 13:22:54;;;;;;;3.55;2.50;;;30.90;37.70;;;;;;5105324;27;20471;-69
2022/05/19 13:25:23;;;;;;;3.50;2.63;;;30.60;38.30;;;;;;5106565;28;20508;-68
2022/05/19 13:30:51;;;;;;;70.43;10.97;;;29.90;38.50;;;;;;5106686;28;20513;-68